createdAt,value
2023-02-02T00:01:54.096Z,100419.09
2023-02-02T00:04:25.589Z,100416.72
2023-02-02T00:06:54.571Z,100416.03
2023-02-02T00:09:22.988Z,100404.94
2023-02-02T00:11:52.916Z,100416.47
2023-02-02T00:14:21.615Z,100413.97
2023-02-02T00:16:51.545Z,100413.31
2023-02-02T00:19:22.429Z,100409.25
2023-02-02T00:21:50.904Z,100406.91
2023-02-02T00:24:20.196Z,100424.97
2023-02-02T00:26:53.077Z,100418.88
2023-02-02T00:29:23.814Z,100422.88
2023-02-02T00:31:53.239Z,100423.69
2023-02-02T00:34:22.695Z,100411.63
2023-02-02T00:36:52.040Z,100416.78
2023-02-02T00:39:22.958Z,100431.41
2023-02-02T00:41:53.062Z,100419.22
2023-02-02T00:44:39.359Z,100420.13
2023-02-02T00:47:08.007Z,100419.91
2023-02-02T00:49:36.414Z,100416.34
2023-02-02T00:52:05.088Z,100431.78
2023-02-02T00:54:33.507Z,100424.06
2023-02-02T00:57:03.319Z,100419.03
2023-02-02T00:59:31.744Z,100417.31
2023-02-02T01:02:00.248Z,100413.06
2023-02-02T01:04:28.979Z,100421.69
2023-02-02T01:06:57.680Z,100413.19
2023-02-02T01:09:26.357Z,100426.03
2023-02-02T01:11:55.151Z,100422.56
2023-02-02T01:14:24.872Z,100416.53
2023-02-02T01:16:53.312Z,100413.00
2023-02-02T01:19:21.749Z,100422.38
2023-02-02T01:21:51.144Z,100415.56
2023-02-02T01:24:22.067Z,100419.91
2023-02-02T01:26:50.599Z,100422.56
2023-02-02T01:29:19.086Z,100419.34
2023-02-02T01:31:51.689Z,100416.06
2023-02-02T01:34:20.434Z,100427.38
2023-02-02T01:36:49.597Z,100429.16
2023-02-02T01:39:18.207Z,100425.69
2023-02-02T01:41:46.682Z,100422.34
2023-02-02T01:45:13.919Z,100427.47
2023-02-02T01:47:49.210Z,100428.25
2023-02-02T01:50:19.592Z,100436.16
2023-02-02T01:52:51.114Z,100437.97
2023-02-02T01:55:23.913Z,100429.47
2023-02-02T01:57:59.099Z,100441.53
2023-02-02T02:00:27.941Z,100443.31
2023-02-02T02:03:02.358Z,100440.84
2023-02-02T02:05:36.287Z,100440.16
2023-02-02T02:08:13.370Z,100440.28
2023-02-02T02:10:41.887Z,100448.00
2023-02-02T02:13:10.598Z,100442.94
2023-02-02T02:16:05.977Z,100436.13
2023-02-02T02:18:47.176Z,100449.88
2023-02-02T02:21:56.881Z,100454.03
2023-02-02T02:25:29.078Z,100448.78
2023-02-02T02:28:51.556Z,100434.78
2023-02-02T02:32:23.373Z,100447.00
2023-02-02T02:35:00.938Z,100431.66
2023-02-02T02:37:46.120Z,100424.94
2023-02-02T02:40:25.409Z,100425.16
2023-02-02T02:43:00.980Z,100429.59
2023-02-02T02:45:34.668Z,100434.06
2023-02-02T02:48:05.213Z,100441.00
2023-02-02T02:50:33.771Z,100438.44
2023-02-02T02:53:07.489Z,100433.41
2023-02-02T02:55:47.431Z,100434.38
2023-02-02T02:58:21.940Z,100437.84
2023-02-02T03:01:02.417Z,100440.66
2023-02-02T03:03:50.799Z,100438.16
2023-02-02T03:06:25.038Z,100435.56
2023-02-02T03:08:59.732Z,100441.84
2023-02-02T03:11:28.307Z,100440.16
2023-02-02T03:13:56.841Z,100445.19
2023-02-02T03:16:25.440Z,100441.63
2023-02-02T03:18:56.081Z,100440.94
2023-02-02T03:21:24.522Z,100435.78
2023-02-02T03:23:53.067Z,100432.44
2023-02-02T03:26:21.923Z,100441.03
2023-02-02T03:28:50.902Z,100426.41
2023-02-02T03:31:19.703Z,100432.34
2023-02-02T03:33:48.213Z,100429.53
2023-02-02T03:36:18.071Z,100438.06
2023-02-02T03:38:46.470Z,100429.34
2023-02-02T03:41:15.163Z,100439.63
2023-02-02T03:43:43.640Z,100435.38
2023-02-02T03:46:12.533Z,100438.84
2023-02-02T03:48:41.268Z,100432.91
2023-02-02T03:51:11.638Z,100444.19
2023-02-02T03:53:44.309Z,100439.81
2023-02-02T03:56:12.821Z,100440.66
2023-02-02T03:58:41.551Z,100443.22
2023-02-02T04:01:13.410Z,100437.16
2023-02-02T04:03:41.814Z,100432.81
2023-02-02T04:06:10.662Z,100438.06
2023-02-02T04:08:39.427Z,100444.06
2023-02-02T04:11:12.644Z,100439.75
2023-02-02T04:13:43.356Z,100442.31
2023-02-02T04:16:13.397Z,100444.19
2023-02-02T04:18:42.386Z,100440.06
2023-02-02T04:21:11.053Z,100445.19
2023-02-02T04:23:39.428Z,100446.09
2023-02-02T04:26:08.053Z,100445.38
2023-02-02T04:28:38.026Z,100430.84
2023-02-02T04:31:06.479Z,100443.81
2023-02-02T04:33:36.191Z,100443.94
2023-02-02T04:36:05.386Z,100443.03
2023-02-02T04:38:33.736Z,100444.00
2023-02-02T04:41:09.081Z,100443.22
2023-02-02T04:43:39.842Z,100446.59
2023-02-02T04:46:08.342Z,100454.31
2023-02-02T04:48:37.336Z,100437.28
2023-02-02T04:51:08.731Z,100443.44
2023-02-02T04:53:37.717Z,100446.03
2023-02-02T04:56:07.928Z,100441.78
2023-02-02T04:58:38.144Z,100437.53
2023-02-02T05:01:11.386Z,100446.09
2023-02-02T05:03:40.603Z,100432.38
2023-02-02T05:06:10.328Z,100439.38
2023-02-02T05:08:38.937Z,100446.22
2023-02-02T05:11:11.647Z,100442.84
2023-02-02T05:13:41.960Z,100442.84
2023-02-02T05:16:10.492Z,100442.84
2023-02-02T05:18:38.931Z,100454.16
2023-02-02T05:21:07.450Z,100441.28
2023-02-02T05:23:36.002Z,100440.59
2023-02-02T05:26:04.632Z,100437.22
2023-02-02T05:28:35.618Z,100439.00
2023-02-02T05:31:08.831Z,100433.09
2023-02-02T05:33:37.396Z,100444.28
2023-02-02T05:36:07.523Z,100445.94
2023-02-02T05:38:36.608Z,100450.38
2023-02-02T05:41:05.543Z,100452.19
2023-02-02T05:43:34.757Z,100443.56
2023-02-02T05:46:03.274Z,100434.16
2023-02-02T05:48:33.513Z,100435.84
2023-02-02T05:51:06.886Z,100447.94
2023-02-02T05:53:35.419Z,100451.28
2023-02-02T05:56:04.056Z,100448.81
2023-02-02T05:58:32.616Z,100441.09
2023-02-02T06:01:01.020Z,100449.78
2023-02-02T06:03:29.607Z,100447.22
2023-02-02T06:05:59.596Z,100443.06
2023-02-02T06:08:28.178Z,100458.53
2023-02-02T06:10:56.638Z,100456.72
2023-02-02T06:13:25.039Z,100457.72
2023-02-02T06:15:53.578Z,100450.91
2023-02-02T06:18:22.082Z,100451.03
2023-02-02T06:20:50.481Z,100447.63
2023-02-02T06:23:20.275Z,100456.16
2023-02-02T06:25:49.164Z,100455.28
2023-02-02T06:28:17.615Z,100457.72
2023-02-02T06:30:46.169Z,100461.09
2023-02-02T06:33:14.804Z,100453.38
2023-02-02T06:35:43.244Z,100461.09
2023-02-02T06:38:11.996Z,100467.13
2023-02-02T06:40:41.675Z,100470.72
2023-02-02T06:43:15.102Z,100470.72
2023-02-02T06:45:43.658Z,100476.75
2023-02-02T06:48:12.354Z,100476.75
2023-02-02T06:50:41.035Z,100481.09
2023-02-02T06:53:09.466Z,100474.25
2023-02-02T06:55:37.824Z,100470.00
2023-02-02T06:58:07.526Z,100488.03
2023-02-02T07:00:38.318Z,100486.38
2023-02-02T07:03:06.770Z,100491.53
2023-02-02T07:05:35.312Z,100486.38
2023-02-02T07:08:03.831Z,100490.88
2023-02-02T07:11:12.859Z,100496.00
2023-02-02T07:13:22.435Z,100496.69
2023-02-02T07:15:51.110Z,100493.19
2023-02-02T07:18:19.555Z,100500.00
2023-02-02T07:20:47.989Z,100500.91
2023-02-02T07:23:17.120Z,100507.88
2023-02-02T07:25:45.729Z,100506.97
2023-02-02T07:28:14.350Z,100505.31
2023-02-02T07:30:44.171Z,100511.34
2023-02-02T07:33:12.966Z,100508.09
2023-02-02T07:35:41.381Z,100509.84
2023-02-02T07:38:10.242Z,100516.78
2023-02-02T07:40:38.643Z,100501.34
2023-02-02T07:43:07.223Z,100509.19
2023-02-02T07:45:36.110Z,100519.59
2023-02-02T07:48:06.825Z,100513.63
2023-02-02T07:50:35.411Z,100528.28
2023-02-02T07:53:03.820Z,100518.00
2023-02-02T07:55:32.434Z,100522.34
2023-02-02T07:58:01.696Z,100519.00
2023-02-02T08:00:33.123Z,100513.84
2023-02-02T08:03:01.505Z,100521.56
2023-02-02T08:05:32.152Z,100524.16
2023-02-02T08:08:00.565Z,100535.22
2023-02-02T08:10:32.119Z,100532.66
2023-02-02T08:13:00.657Z,100530.88
2023-02-02T08:15:32.408Z,100537.91
2023-02-02T08:18:00.789Z,100542.94
2023-02-02T08:20:30.528Z,100546.53
2023-02-02T08:22:59.001Z,100546.53
2023-02-02T08:25:28.382Z,100549.19
2023-02-02T08:27:58.661Z,100554.25
2023-02-02T08:30:27.149Z,100546.53
2023-02-02T08:32:55.649Z,100557.72
2023-02-02T08:35:24.274Z,100550.09
2023-02-02T08:37:54.254Z,100562.19
2023-02-02T08:40:23.155Z,100557.91
2023-02-02T08:42:55.570Z,100555.47
2023-02-02T08:46:02.509Z,100551.09
2023-02-02T08:48:12.893Z,100561.50
2023-02-02T08:50:41.469Z,100558.03
2023-02-02T08:53:11.232Z,100577.06
2023-02-02T08:55:39.711Z,100572.78
2023-02-02T08:58:09.989Z,100578.03
2023-02-02T09:00:38.957Z,100585.88
2023-02-02T09:03:07.368Z,100591.13
2023-02-02T09:05:38.571Z,100589.53
2023-02-02T09:08:07.349Z,100596.38
2023-02-02T09:10:39.931Z,100590.31
2023-02-02T09:13:08.698Z,100598.88
2023-02-02T09:15:37.129Z,100599.66
2023-02-02T09:18:05.963Z,100607.38
2023-02-02T09:20:34.992Z,100610.94
2023-02-02T09:23:03.670Z,100614.31
2023-02-02T09:25:32.260Z,100617.69
2023-02-02T09:28:02.096Z,100619.47
2023-02-02T09:30:30.581Z,100629.66
2023-02-02T09:32:59.136Z,100639.06
2023-02-02T09:35:27.988Z,100638.94
2023-02-02T09:37:56.326Z,100650.84
2023-02-02T09:40:27.884Z,100647.25
2023-02-02T09:43:09.107Z,100642.31
2023-02-02T09:45:46.561Z,100647.47
2023-02-02T09:48:27.645Z,100665.59
2023-02-02T09:51:01.130Z,100669.97
2023-02-02T09:53:54.739Z,100668.28
2023-02-02T09:56:28.865Z,100666.59
2023-02-02T09:59:18.801Z,100668.28
2023-02-02T10:01:51.592Z,100677.03
2023-02-02T10:04:24.925Z,100683.16
2023-02-02T10:06:57.156Z,100677.34
2023-02-02T10:09:36.024Z,100690.22
2023-02-02T10:12:18.500Z,100689.31
2023-02-02T10:14:55.640Z,100695.38
2023-02-02T10:17:43.077Z,100692.00
2023-02-02T10:20:27.437Z,100679.78
2023-02-02T10:23:01.060Z,100691.78
2023-02-02T10:25:30.786Z,100691.78
2023-02-02T10:28:08.619Z,100694.34
2023-02-02T10:30:47.540Z,100703.88
2023-02-02T10:33:26.430Z,100706.44
2023-02-02T10:36:04.714Z,100706.56
2023-02-02T10:38:42.539Z,100717.75
2023-02-02T10:41:19.913Z,100709.13
2023-02-02T10:44:22.017Z,100711.59
2023-02-02T10:46:55.384Z,100709.03
2023-02-02T10:49:31.057Z,100722.91
2023-02-02T10:52:07.387Z,100717.66
2023-02-02T10:54:58.425Z,100719.53
2023-02-02T10:57:58.554Z,100719.31
2023-02-02T11:00:32.371Z,100715.06
2023-02-02T11:03:04.901Z,100716.75
2023-02-02T11:05:50.825Z,100715.97
2023-02-02T11:08:23.718Z,100719.31
2023-02-02T11:10:56.384Z,100722.91
2023-02-02T11:13:31.671Z,100719.53
2023-02-02T11:16:25.686Z,100726.47
2023-02-02T11:18:57.200Z,100729.03
2023-02-02T11:21:28.888Z,100730.06
2023-02-02T11:24:01.969Z,100726.00
2023-02-02T11:26:48.058Z,100730.38
2023-02-02T11:29:21.632Z,100721.75
2023-02-02T11:31:50.259Z,100726.00
2023-02-02T11:34:23.243Z,100731.25
2023-02-02T11:37:13.389Z,100726.88
2023-02-02T11:39:42.437Z,100725.09
2023-02-02T11:42:17.323Z,100718.28
2023-02-02T11:44:50.168Z,100720.19
2023-02-02T11:47:27.548Z,100726.22
2023-02-02T11:50:00.870Z,100722.88
2023-02-02T11:52:33.179Z,100717.72
2023-02-02T11:55:10.760Z,100717.78
2023-02-02T11:57:39.298Z,100717.78
2023-02-02T12:00:19.636Z,100717.00
2023-02-02T12:02:49.486Z,100711.84
2023-02-02T12:05:39.573Z,100718.81
2023-02-02T12:08:12.596Z,100717.13
2023-02-02T12:10:46.133Z,100716.34
2023-02-02T12:13:32.647Z,100722.38
2023-02-02T12:16:37.107Z,100721.56
2023-02-02T12:19:29.281Z,100728.53
2023-02-02T12:22:11.957Z,100725.16
2023-02-02T12:24:46.995Z,100723.47
2023-02-02T12:27:28.372Z,100721.03
2023-02-02T12:30:18.576Z,100719.34
2023-02-02T12:33:05.753Z,100730.63
2023-02-02T12:35:51.095Z,100729.94
2023-02-02T12:38:37.010Z,100733.31
2023-02-02T12:41:25.398Z,100733.31
2023-02-02T12:44:03.091Z,100734.22
2023-02-02T12:46:54.739Z,100734.09
2023-02-02T12:49:51.831Z,100732.41
2023-02-02T12:52:35.782Z,100731.53
2023-02-02T12:55:24.935Z,100733.31
2023-02-02T12:58:09.216Z,100733.31
2023-02-02T13:00:54.627Z,100731.75
2023-02-02T13:03:36.186Z,100728.34
2023-02-02T13:06:24.616Z,100728.34
2023-02-02T13:08:59.384Z,100728.34
2023-02-02T13:11:40.616Z,100726.66
2023-02-02T13:14:14.232Z,100721.50
2023-02-02T13:16:49.323Z,100730.16
2023-02-02T13:19:28.157Z,100729.38
2023-02-02T13:21:59.846Z,100733.72
2023-02-02T13:24:31.840Z,100725.22
2023-02-02T13:27:05.981Z,100731.34
2023-02-02T13:29:48.121Z,100731.28
2023-02-02T13:32:26.489Z,100740.09
2023-02-02T13:35:00.374Z,100739.31
2023-02-02T13:37:37.163Z,100744.47
2023-02-02T13:40:19.693Z,100744.47
2023-02-02T13:42:56.751Z,100746.25
2023-02-02T13:45:44.302Z,100742.00
2023-02-02T13:48:26.550Z,100748.00
2023-02-02T13:51:45.833Z,100746.25
2023-02-02T13:54:57.228Z,100752.06
2023-02-02T13:58:00.301Z,100750.28
2023-02-02T14:00:33.735Z,100751.88
2023-02-02T14:03:06.038Z,100744.16
2023-02-02T14:05:38.860Z,100753.75
2023-02-02T14:08:17.846Z,100754.78
2023-02-02T14:11:00.605Z,100750.59
2023-02-02T14:13:56.596Z,100755.75
2023-02-02T14:16:44.425Z,100756.56
2023-02-02T14:19:17.702Z,100757.34
2023-02-02T14:22:22.828Z,100761.72
2023-02-02T14:24:53.631Z,100761.72
2023-02-02T14:27:58.289Z,100760.91
2023-02-02T14:30:34.416Z,100761.91
2023-02-02T14:33:40.045Z,100768.84
2023-02-02T14:36:16.830Z,100774.00
2023-02-02T14:39:08.182Z,100770.66
2023-02-02T14:42:24.677Z,100770.84
2023-02-02T14:45:29.930Z,100777.59
2023-02-02T14:48:02.424Z,100777.69
2023-02-02T14:50:44.100Z,100776.22
2023-02-02T14:53:25.043Z,100786.63
2023-02-02T14:56:00.017Z,100781.56
2023-02-02T14:58:34.076Z,100799.63
2023-02-02T15:01:11.283Z,100793.47
2023-02-02T15:04:23.260Z,100801.13
2023-02-02T15:06:53.871Z,100800.22
2023-02-02T15:09:39.879Z,100811.50
2023-02-02T15:12:37.183Z,100807.06
2023-02-02T15:15:23.936Z,100807.16
2023-02-02T15:18:08.662Z,100804.59
2023-02-02T15:20:48.793Z,100807.34
2023-02-02T15:23:28.987Z,100810.94
2023-02-02T15:26:05.954Z,100810.16
2023-02-02T15:28:44.296Z,100803.41
2023-02-02T15:31:20.521Z,100806.88
2023-02-02T15:33:51.964Z,100811.38
2023-02-02T15:36:26.776Z,100808.78
2023-02-02T15:39:00.182Z,100819.88
2023-02-02T15:41:33.247Z,100826.06
2023-02-02T15:44:02.004Z,100816.59
2023-02-02T15:46:34.383Z,100815.75
2023-02-02T15:49:33.901Z,100821.88
2023-02-02T15:52:14.896Z,100824.44
2023-02-02T15:54:53.722Z,100832.97
2023-02-02T15:57:34.775Z,100830.41
2023-02-02T16:00:25.810Z,100828.72
2023-02-02T16:03:01.659Z,100831.41
2023-02-02T16:05:45.783Z,100833.97
2023-02-02T16:08:20.641Z,100840.94
2023-02-02T16:10:50.093Z,100841.72
2023-02-02T16:13:28.861Z,100843.50
2023-02-02T16:16:00.143Z,100847.88
2023-02-02T16:18:29.085Z,100845.31
2023-02-02T16:21:00.298Z,100853.94
2023-02-02T16:23:35.508Z,100842.72
2023-02-02T16:26:07.081Z,100847.88
2023-02-02T16:28:36.449Z,100847.00
2023-02-02T16:31:06.945Z,100850.34
2023-02-02T16:33:42.792Z,100855.63
2023-02-02T16:36:26.255Z,100845.31
2023-02-02T16:38:58.033Z,100855.63
2023-02-02T16:41:33.766Z,100853.94
2023-02-02T16:44:30.721Z,100865.03
2023-02-02T16:46:59.946Z,100860.66
2023-02-02T16:49:29.893Z,100877.03
2023-02-02T16:52:17.238Z,100871.88
2023-02-02T16:54:55.416Z,100876.13
2023-02-02T16:57:27.519Z,100881.28
2023-02-02T16:59:58.378Z,100884.00
2023-02-02T17:02:31.293Z,100894.31
2023-02-02T17:05:05.794Z,100888.25
2023-02-02T17:07:37.168Z,100896.88
2023-02-02T17:10:25.197Z,100887.34
2023-02-02T17:12:53.727Z,100891.50
2023-02-02T17:15:35.647Z,100885.56
2023-02-02T17:18:05.782Z,100883.75
2023-02-02T17:20:34.876Z,100880.41
2023-02-02T17:23:06.853Z,100892.50
2023-02-02T17:25:42.313Z,100890.72
2023-02-02T17:28:13.787Z,100894.06
2023-02-02T17:30:43.016Z,100894.97
2023-02-02T17:33:14.777Z,100890.59
2023-02-02T17:35:54.390Z,100892.19
2023-02-02T17:38:27.712Z,100899.03
2023-02-02T17:41:02.100Z,100893.88
2023-02-02T17:43:31.529Z,100906.75
2023-02-02T17:46:01.630Z,100911.81
2023-02-02T17:48:30.420Z,100912.69
2023-02-02T17:50:58.817Z,100905.75
2023-02-02T17:53:32.097Z,100911.69
2023-02-02T17:56:03.161Z,100904.84
2023-02-02T17:58:31.686Z,100913.59
2023-02-02T18:01:00.504Z,100912.69
2023-02-02T18:03:34.220Z,100906.75
2023-02-02T18:06:03.769Z,100903.94
2023-02-02T18:08:34.176Z,100897.22
2023-02-02T18:11:04.536Z,100917.06
2023-02-02T18:13:33.908Z,100916.28
2023-02-02T18:16:02.494Z,100916.19
2023-02-02T18:18:31.098Z,100920.56
2023-02-02T18:20:59.509Z,100916.28
2023-02-02T18:23:28.382Z,100915.47
2023-02-02T18:25:56.856Z,100911.91
2023-02-02T18:28:26.923Z,100923.22
2023-02-02T18:30:55.703Z,100914.50
2023-02-02T18:33:24.123Z,100917.84
2023-02-02T18:35:52.505Z,100924.03
2023-02-02T18:38:21.367Z,100922.22
2023-02-02T18:40:57.005Z,100918.06
2023-02-02T18:43:26.872Z,100915.47
2023-02-02T18:46:01.291Z,100916.50
2023-02-02T18:48:30.771Z,100917.38
2023-02-02T18:50:59.731Z,100912.34
2023-02-02T18:53:28.249Z,100903.72
2023-02-02T18:55:56.824Z,100906.38
2023-02-02T18:58:27.617Z,100899.47
2023-02-02T19:00:56.045Z,100896.97
2023-02-02T19:03:24.564Z,100901.22
2023-02-02T19:06:10.740Z,100893.47
2023-02-02T19:08:39.437Z,100891.72
2023-02-02T19:11:15.949Z,100890.91
2023-02-02T19:13:46.498Z,100895.97
2023-02-02T19:16:20.610Z,100899.47
2023-02-02T19:18:49.255Z,100904.63
2023-02-02T19:21:18.053Z,100896.06
2023-02-02T19:23:46.564Z,100902.13
2023-02-02T19:26:25.218Z,100907.28
2023-02-02T19:29:01.435Z,100903.00
2023-02-02T19:31:30.357Z,100905.50
2023-02-02T19:33:59.097Z,100915.81
2023-02-02T19:36:30.967Z,100907.28
2023-02-02T19:39:09.261Z,100917.69
2023-02-02T19:41:39.275Z,100911.75
2023-02-02T19:44:16.818Z,100916.22
2023-02-02T19:46:48.743Z,100918.91
2023-02-02T19:49:26.361Z,100918.13
2023-02-02T19:51:56.446Z,100918.00
2023-02-02T19:54:33.305Z,100916.56
2023-02-02T19:57:04.943Z,100919.16
2023-02-02T19:59:36.818Z,100913.88
2023-02-02T20:02:39.750Z,100914.00
2023-02-02T20:05:21.110Z,100913.09
2023-02-02T20:07:53.780Z,100922.50
2023-02-02T20:10:25.831Z,100918.25
2023-02-02T20:12:55.567Z,100914.00
2023-02-02T20:15:33.236Z,100901.09
2023-02-02T20:18:05.595Z,100901.88
2023-02-02T20:20:40.504Z,100895.16
2023-02-02T20:23:39.341Z,100908.06
2023-02-02T20:26:28.273Z,100906.34
2023-02-02T20:29:03.700Z,100907.16
2023-02-02T20:31:39.307Z,100905.47
2023-02-02T20:34:25.189Z,100906.44
2023-02-02T20:36:55.457Z,100909.03
2023-02-02T20:39:37.188Z,100898.81
2023-02-02T20:42:06.262Z,100909.03
2023-02-02T20:44:36.286Z,100916.09
2023-02-02T20:47:07.977Z,100907.47
2023-02-02T20:49:38.485Z,100901.53
2023-02-02T20:52:12.912Z,100896.56
2023-02-02T20:54:41.342Z,100905.06
2023-02-02T20:57:09.671Z,100910.34
2023-02-02T20:59:38.081Z,100902.72
2023-02-02T21:02:08.809Z,100904.59
2023-02-02T21:04:37.262Z,100895.97
2023-02-02T21:07:05.741Z,100894.44
2023-02-02T21:09:34.417Z,100891.97
2023-02-02T21:12:02.853Z,100908.34
2023-02-02T21:14:31.232Z,100911.72
2023-02-02T21:17:13.993Z,100923.81
2023-02-02T21:19:45.068Z,100933.25
2023-02-02T21:22:14.087Z,100934.91
2023-02-02T21:24:42.821Z,100939.19
2023-02-02T21:27:11.876Z,100942.66
2023-02-02T21:29:41.430Z,100950.41
2023-02-02T21:32:09.970Z,100961.69
2023-02-02T21:34:38.601Z,100956.47
2023-02-02T21:37:15.135Z,100962.41
2023-02-02T21:39:50.067Z,100964.19
2023-02-02T21:42:21.192Z,100962.41
2023-02-02T21:44:54.126Z,100958.13
2023-02-02T21:47:34.263Z,100949.63
2023-02-02T21:50:16.555Z,100952.97
2023-02-02T21:52:47.363Z,100946.91
2023-02-02T21:55:35.057Z,100932.34
2023-02-02T21:58:17.857Z,100937.63
2023-02-02T22:00:46.302Z,100940.09
2023-02-02T22:03:30.064Z,100927.19
2023-02-02T22:06:26.391Z,100921.13
2023-02-02T22:09:03.173Z,100923.81
2023-02-02T22:11:40.630Z,100922.91
2023-02-02T22:14:24.171Z,100922.91
2023-02-02T22:16:55.829Z,100927.19
2023-02-02T22:19:34.666Z,100928.97
2023-02-02T22:22:18.245Z,100913.50
2023-02-02T22:24:53.239Z,100913.50
2023-02-02T22:27:25.747Z,100918.75
2023-02-02T22:29:59.563Z,100915.25
2023-02-02T22:32:27.965Z,100918.75
2023-02-02T22:34:56.480Z,100917.06
2023-02-02T22:37:24.896Z,100937.69
2023-02-02T22:39:54.693Z,100935.91
2023-02-02T22:42:23.110Z,100935.91
2023-02-02T22:44:53.454Z,100927.38
2023-02-02T22:47:21.905Z,100912.78
2023-02-02T22:49:53.088Z,100918.84
2023-02-02T22:52:21.511Z,100912.13
2023-02-02T22:54:50.052Z,100910.34
2023-02-02T22:57:20.181Z,100891.50
2023-02-02T22:59:48.813Z,100894.06
2023-02-02T23:02:17.327Z,100911.34
2023-02-02T23:04:45.734Z,100903.59
2023-02-02T23:07:14.234Z,100898.34
2023-02-02T23:09:42.989Z,100912.13
2023-02-02T23:12:11.432Z,100913.91
2023-02-02T23:14:41.463Z,100901.03
2023-02-02T23:17:09.985Z,100888.13
2023-02-02T23:19:38.471Z,100895.88
2023-02-02T23:22:09.804Z,100907.88
2023-02-02T23:24:38.318Z,100902.69
2023-02-02T23:27:06.767Z,100902.78
2023-02-02T23:29:35.142Z,100912.31
2023-02-02T23:32:05.877Z,100902.91
2023-02-02T23:34:34.809Z,100911.66
2023-02-02T23:37:03.446Z,100890.09
2023-02-02T23:39:32.138Z,100891.91
2023-02-02T23:42:00.681Z,100885.06
2023-02-02T23:44:29.212Z,100885.13
2023-02-02T23:46:58.565Z,100881.00
2023-02-02T23:49:28.805Z,100873.13
2023-02-02T23:51:57.272Z,100862.75
2023-02-02T23:54:26.294Z,100862.75
2023-02-02T23:56:54.962Z,100862.75
2023-02-02T23:59:23.356Z,100868.69
